sensor_id;sensor_type;location;lat;lon;timestamp;P1;durP1;ratioP1;P2;durP2;ratioP2
5416;SDS011;2731;50.754;12.990;2022-08-01T00:02:00;3.50;;;3.17;;
5416;SDS011;2731;50.754;12.990;2022-08-01T00:04:26;3.45;;;3.15;;
5416;SDS011;2731;50.754;12.990;2022-08-01T00:06:51;3.85;;;3.38;;
5416;SDS011;2731;50.754;12.990;2022-08-01T00:09:16;4.00;;;3.50;;
5416;SDS011;2731;50.754;12.990;2022-08-01T00:11:42;2.97;;;2.75;;
5416;SDS011;2731;50.754;12.990;2022-08-01T00:14:07;3.60;;;3.30;;
5416;SDS011;2731;50.754;12.990;2022-08-01T00:16:34;4.68;;;3.55;;
5416;SDS011;2731;50.754;12.990;2022-08-01T00:18:59;3.78;;;3.15;;
5416;SDS011;2731;50.754;12.990;2022-08-01T00:21:24;3.47;;;3.17;;
5416;SDS011;2731;50.754;12.990;2022-08-01T00:23:50;4.13;;;3.72;;
5416;SDS011;2731;50.754;12.990;2022-08-01T00:26:15;3.90;;;3.50;;
5416;SDS011;2731;50.754;12.990;2022-08-01T00:28:41;4.03;;;3.63;;
5416;SDS011;2731;50.754;12.990;2022-08-01T00:31:06;4.57;;;3.63;;
5416;SDS011;2731;50.754;12.990;2022-08-01T00:33:31;3.92;;;3.63;;
5416;SDS011;2731;50.754;12.990;2022-08-01T00:35:57;3.77;;;3.47;;
5416;SDS011;2731;50.754;12.990;2022-08-01T00:38:22;5.13;;;3.72;;
5416;SDS011;2731;50.754;12.990;2022-08-01T00:40:47;5.67;;;3.73;;
5416;SDS011;2731;50.754;12.990;2022-08-01T00:43:13;6.10;;;3.95;;
5416;SDS011;2731;50.754;12.990;2022-08-01T00:45:38;4.30;;;3.90;;
5416;SDS011;2731;50.754;12.990;2022-08-01T00:48:03;3.88;;;3.50;;
5416;SDS011;2731;50.754;12.990;2022-08-01T00:50:29;4.50;;;3.83;;
5416;SDS011;2731;50.754;12.990;2022-08-01T00:52:54;4.13;;;3.72;;
5416;SDS011;2731;50.754;12.990;2022-08-01T00:55:20;4.50;;;3.95;;
5416;SDS011;2731;50.754;12.990;2022-08-01T00:57:46;3.90;;;3.50;;
5416;SDS011;2731;50.754;12.990;2022-08-01T01:00:12;4.45;;;3.45;;
5416;SDS011;2731;50.754;12.990;2022-08-01T01:02:37;5.43;;;3.60;;
5416;SDS011;2731;50.754;12.990;2022-08-01T01:05:02;3.78;;;3.42;;
5416;SDS011;2731;50.754;12.990;2022-08-01T01:09:58;3.92;;;3.53;;
5416;SDS011;2731;50.754;12.990;2022-08-01T01:12:39;4.88;;;4.38;;
5416;SDS011;2731;50.754;12.990;2022-08-01T01:15:13;5.43;;;4.40;;
5416;SDS011;2731;50.754;12.990;2022-08-01T01:17:41;5.03;;;3.50;;
5416;SDS011;2731;50.754;12.990;2022-08-01T01:20:11;4.53;;;4.13;;
5416;SDS011;2731;50.754;12.990;2022-08-01T01:25:19;4.30;;;3.88;;
5416;SDS011;2731;50.754;12.990;2022-08-01T01:30:17;5.72;;;3.88;;
5416;SDS011;2731;50.754;12.990;2022-08-01T01:32:43;4.63;;;4.10;;
5416;SDS011;2731;50.754;12.990;2022-08-01T01:35:21;4.40;;;4.00;;
5416;SDS011;2731;50.754;12.990;2022-08-01T01:37:47;4.35;;;4.03;;
5416;SDS011;2731;50.754;12.990;2022-08-01T01:40:13;4.63;;;4.03;;
5416;SDS011;2731;50.754;12.990;2022-08-01T01:42:42;5.65;;;4.60;;
5416;SDS011;2731;50.754;12.990;2022-08-01T01:45:08;4.90;;;4.30;;
5416;SDS011;2731;50.754;12.990;2022-08-01T01:47:33;5.03;;;4.60;;
5416;SDS011;2731;50.754;12.990;2022-08-01T01:49:59;5.05;;;4.55;;
5416;SDS011;2731;50.754;12.990;2022-08-01T01:52:24;12.50;;;4.68;;
5416;SDS011;2731;50.754;12.990;2022-08-01T01:54:51;4.68;;;4.28;;
5416;SDS011;2731;50.754;12.990;2022-08-01T01:57:19;5.15;;;4.72;;
5416;SDS011;2731;50.754;12.990;2022-08-01T01:59:45;6.65;;;4.78;;
5416;SDS011;2731;50.754;12.990;2022-08-01T02:02:11;5.55;;;4.65;;
5416;SDS011;2731;50.754;12.990;2022-08-01T02:04:40;5.53;;;5.00;;
5416;SDS011;2731;50.754;12.990;2022-08-01T02:07:05;7.45;;;5.20;;
5416;SDS011;2731;50.754;12.990;2022-08-01T02:09:31;6.53;;;4.85;;
5416;SDS011;2731;50.754;12.990;2022-08-01T02:11:57;5.15;;;4.65;;
5416;SDS011;2731;50.754;12.990;2022-08-01T02:14:23;5.40;;;4.90;;
5416;SDS011;2731;50.754;12.990;2022-08-01T02:16:49;5.38;;;4.68;;
5416;SDS011;2731;50.754;12.990;2022-08-01T02:19:15;5.10;;;4.60;;
5416;SDS011;2731;50.754;12.990;2022-08-01T02:24:13;5.90;;;4.50;;
5416;SDS011;2731;50.754;12.990;2022-08-01T02:26:41;5.00;;;4.60;;
5416;SDS011;2731;50.754;12.990;2022-08-01T02:29:07;5.63;;;4.95;;
5416;SDS011;2731;50.754;12.990;2022-08-01T02:31:35;4.95;;;4.55;;
5416;SDS011;2731;50.754;12.990;2022-08-01T02:34:04;8.93;;;4.65;;
5416;SDS011;2731;50.754;12.990;2022-08-01T02:36:30;5.38;;;4.70;;
5416;SDS011;2731;50.754;12.990;2022-08-01T02:39:00;5.85;;;4.85;;
5416;SDS011;2731;50.754;12.990;2022-08-01T02:41:26;6.18;;;4.97;;
5416;SDS011;2731;50.754;12.990;2022-08-01T02:43:53;5.47;;;4.97;;
5416;SDS011;2731;50.754;12.990;2022-08-01T02:46:22;4.32;;;4.03;;
5416;SDS011;2731;50.754;12.990;2022-08-01T02:48:49;4.88;;;4.38;;
5416;SDS011;2731;50.754;12.990;2022-08-01T02:51:15;4.70;;;4.30;;
5416;SDS011;2731;50.754;12.990;2022-08-01T02:53:41;6.03;;;5.22;;
5416;SDS011;2731;50.754;12.990;2022-08-01T02:56:10;6.03;;;5.13;;
5416;SDS011;2731;50.754;12.990;2022-08-01T02:58:36;5.40;;;4.90;;
5416;SDS011;2731;50.754;12.990;2022-08-01T03:01:05;5.57;;;4.63;;
5416;SDS011;2731;50.754;12.990;2022-08-01T03:03:31;7.35;;;5.25;;
5416;SDS011;2731;50.754;12.990;2022-08-01T03:05:56;5.03;;;4.10;;
5416;SDS011;2731;50.754;12.990;2022-08-01T03:08:22;5.57;;;4.70;;
5416;SDS011;2731;50.754;12.990;2022-08-01T03:10:48;5.82;;;4.40;;
5416;SDS011;2731;50.754;12.990;2022-08-01T03:13:15;5.85;;;4.93;;
5416;SDS011;2731;50.754;12.990;2022-08-01T03:15:41;7.00;;;4.78;;
5416;SDS011;2731;50.754;12.990;2022-08-01T03:18:07;5.82;;;4.40;;
5416;SDS011;2731;50.754;12.990;2022-08-01T03:20:35;4.88;;;4.47;;
5416;SDS011;2731;50.754;12.990;2022-08-01T03:23:01;5.13;;;4.72;;
5416;SDS011;2731;50.754;12.990;2022-08-01T03:25:28;5.07;;;4.22;;
5416;SDS011;2731;50.754;12.990;2022-08-01T03:27:58;6.00;;;4.40;;
5416;SDS011;2731;50.754;12.990;2022-08-01T03:30:24;8.77;;;4.38;;
5416;SDS011;2731;50.754;12.990;2022-08-01T03:32:50;5.43;;;4.90;;
5416;SDS011;2731;50.754;12.990;2022-08-01T03:35:15;4.75;;;4.32;;
5416;SDS011;2731;50.754;12.990;2022-08-01T03:37:41;7.95;;;4.47;;
5416;SDS011;2731;50.754;12.990;2022-08-01T03:42:42;5.05;;;4.55;;
5416;SDS011;2731;50.754;12.990;2022-08-01T03:45:10;4.82;;;4.35;;
5416;SDS011;2731;50.754;12.990;2022-08-01T03:47:37;4.50;;;4.03;;
5416;SDS011;2731;50.754;12.990;2022-08-01T03:50:03;4.38;;;3.97;;
5416;SDS011;2731;50.754;12.990;2022-08-01T03:52:29;4.45;;;4.05;;
5416;SDS011;2731;50.754;12.990;2022-08-01T03:54:55;5.88;;;4.35;;
5416;SDS011;2731;50.754;12.990;2022-08-01T03:57:21;4.55;;;4.15;;
5416;SDS011;2731;50.754;12.990;2022-08-01T03:59:47;7.40;;;4.05;;
5416;SDS011;2731;50.754;12.990;2022-08-01T04:02:13;5.63;;;4.88;;
5416;SDS011;2731;50.754;12.990;2022-08-01T04:04:39;4.93;;;4.18;;
5416;SDS011;2731;50.754;12.990;2022-08-01T04:07:05;6.38;;;3.97;;
5416;SDS011;2731;50.754;12.990;2022-08-01T04:09:32;4.93;;;4.38;;
5416;SDS011;2731;50.754;12.990;2022-08-01T04:11:58;4.50;;;4.00;;
5416;SDS011;2731;50.754;12.990;2022-08-01T04:14:23;4.88;;;4.30;;
5416;SDS011;2731;50.754;12.990;2022-08-01T04:16:48;4.93;;;4.43;;
5416;SDS011;2731;50.754;12.990;2022-08-01T04:19:16;5.10;;;3.75;;
5416;SDS011;2731;50.754;12.990;2022-08-01T04:21:42;6.20;;;3.70;;
5416;SDS011;2731;50.754;12.990;2022-08-01T04:24:09;4.77;;;4.27;;
5416;SDS011;2731;50.754;12.990;2022-08-01T04:26:36;3.80;;;3.50;;
5416;SDS011;2731;50.754;12.990;2022-08-01T04:29:02;4.70;;;4.18;;
5416;SDS011;2731;50.754;12.990;2022-08-01T04:31:29;4.30;;;3.90;;
5416;SDS011;2731;50.754;12.990;2022-08-01T04:33:55;4.65;;;4.10;;
5416;SDS011;2731;50.754;12.990;2022-08-01T04:36:22;5.60;;;3.90;;
5416;SDS011;2731;50.754;12.990;2022-08-01T04:38:48;5.03;;;4.20;;
5416;SDS011;2731;50.754;12.990;2022-08-01T04:41:15;4.07;;;3.72;;
5416;SDS011;2731;50.754;12.990;2022-08-01T04:43:40;5.50;;;3.75;;
5416;SDS011;2731;50.754;12.990;2022-08-01T04:46:07;3.85;;;3.53;;
5416;SDS011;2731;50.754;12.990;2022-08-01T04:48:32;5.25;;;3.80;;
5416;SDS011;2731;50.754;12.990;2022-08-01T04:50:59;4.28;;;3.88;;
5416;SDS011;2731;50.754;12.990;2022-08-01T04:53:25;6.05;;;3.88;;
5416;SDS011;2731;50.754;12.990;2022-08-01T04:55:51;3.97;;;3.67;;
5416;SDS011;2731;50.754;12.990;2022-08-01T04:58:17;7.90;;;4.73;;
5416;SDS011;2731;50.754;12.990;2022-08-01T05:00:42;4.07;;;3.63;;
5416;SDS011;2731;50.754;12.990;2022-08-01T05:03:07;4.75;;;4.30;;
5416;SDS011;2731;50.754;12.990;2022-08-01T05:05:33;5.18;;;3.60;;
5416;SDS011;2731;50.754;12.990;2022-08-01T05:07:59;5.18;;;3.80;;
5416;SDS011;2731;50.754;12.990;2022-08-01T05:10:25;3.72;;;3.42;;
5416;SDS011;2731;50.754;12.990;2022-08-01T05:12:51;4.85;;;3.92;;
5416;SDS011;2731;50.754;12.990;2022-08-01T05:15:16;4.70;;;3.90;;
5416;SDS011;2731;50.754;12.990;2022-08-01T05:17:44;5.40;;;3.67;;
5416;SDS011;2731;50.754;12.990;2022-08-01T05:20:10;4.43;;;3.70;;
5416;SDS011;2731;50.754;12.990;2022-08-01T05:22:36;6.10;;;4.03;;
5416;SDS011;2731;50.754;12.990;2022-08-01T05:25:04;4.22;;;3.83;;
5416;SDS011;2731;50.754;12.990;2022-08-01T05:27:30;3.97;;;3.67;;
5416;SDS011;2731;50.754;12.990;2022-08-01T05:29:56;6.75;;;4.43;;
5416;SDS011;2731;50.754;12.990;2022-08-01T05:32:21;4.13;;;3.80;;
5416;SDS011;2731;50.754;12.990;2022-08-01T05:34:49;6.80;;;4.10;;
5416;SDS011;2731;50.754;12.990;2022-08-01T05:37:14;4.28;;;3.88;;
5416;SDS011;2731;50.754;12.990;2022-08-01T05:39:40;4.82;;;3.80;;
5416;SDS011;2731;50.754;12.990;2022-08-01T05:42:05;5.20;;;4.13;;
5416;SDS011;2731;50.754;12.990;2022-08-01T05:44:33;4.50;;;4.10;;
5416;SDS011;2731;50.754;12.990;2022-08-01T05:46:59;4.88;;;3.70;;
5416;SDS011;2731;50.754;12.990;2022-08-01T05:49:24;4.70;;;3.83;;
5416;SDS011;2731;50.754;12.990;2022-08-01T05:51:49;4.43;;;4.03;;
5416;SDS011;2731;50.754;12.990;2022-08-01T05:54:14;5.33;;;4.50;;
5416;SDS011;2731;50.754;12.990;2022-08-01T05:56:40;3.65;;;3.35;;
5416;SDS011;2731;50.754;12.990;2022-08-01T05:59:05;4.68;;;4.28;;
5416;SDS011;2731;50.754;12.990;2022-08-01T06:01:30;4.90;;;3.53;;
5416;SDS011;2731;50.754;12.990;2022-08-01T06:03:55;5.27;;;4.10;;
5416;SDS011;2731;50.754;12.990;2022-08-01T06:06:21;4.38;;;3.97;;
5416;SDS011;2731;50.754;12.990;2022-08-01T06:08:46;3.88;;;3.40;;
5416;SDS011;2731;50.754;12.990;2022-08-01T06:11:11;6.05;;;3.92;;
5416;SDS011;2731;50.754;12.990;2022-08-01T06:13:37;6.45;;;3.90;;
5416;SDS011;2731;50.754;12.990;2022-08-01T06:16:02;4.03;;;3.33;;
5416;SDS011;2731;50.754;12.990;2022-08-01T06:18:27;6.43;;;4.10;;
5416;SDS011;2731;50.754;12.990;2022-08-01T06:20:53;4.20;;;3.80;;
5416;SDS011;2731;50.754;12.990;2022-08-01T06:23:19;4.18;;;3.20;;
5416;SDS011;2731;50.754;12.990;2022-08-01T06:25:44;4.18;;;3.25;;
5416;SDS011;2731;50.754;12.990;2022-08-01T06:28:10;4.53;;;3.20;;
5416;SDS011;2731;50.754;12.990;2022-08-01T06:30:38;4.15;;;3.15;;
5416;SDS011;2731;50.754;12.990;2022-08-01T06:33:03;3.80;;;3.50;;
5416;SDS011;2731;50.754;12.990;2022-08-01T06:35:29;5.53;;;3.80;;
5416;SDS011;2731;50.754;12.990;2022-08-01T06:37:55;4.00;;;3.60;;
5416;SDS011;2731;50.754;12.990;2022-08-01T06:40:20;4.20;;;3.00;;
5416;SDS011;2731;50.754;12.990;2022-08-01T06:42:45;3.33;;;3.03;;
5416;SDS011;2731;50.754;12.990;2022-08-01T06:45:11;3.50;;;3.13;;
5416;SDS011;2731;50.754;12.990;2022-08-01T06:47:41;2.78;;;2.53;;
5416;SDS011;2731;50.754;12.990;2022-08-01T06:50:07;3.28;;;2.97;;
5416;SDS011;2731;50.754;12.990;2022-08-01T06:52:33;3.92;;;3.30;;
5416;SDS011;2731;50.754;12.990;2022-08-01T06:54:59;3.38;;;3.13;;
5416;SDS011;2731;50.754;12.990;2022-08-01T06:57:24;3.35;;;3.05;;
5416;SDS011;2731;50.754;12.990;2022-08-01T06:59:49;3.43;;;3.13;;
5416;SDS011;2731;50.754;12.990;2022-08-01T07:02:14;3.43;;;3.13;;
5416;SDS011;2731;50.754;12.990;2022-08-01T07:04:40;3.67;;;2.77;;
5416;SDS011;2731;50.754;12.990;2022-08-01T07:07:05;4.47;;;2.83;;
5416;SDS011;2731;50.754;12.990;2022-08-01T07:09:30;3.60;;;3.30;;
5416;SDS011;2731;50.754;12.990;2022-08-01T07:11:56;3.22;;;2.78;;
5416;SDS011;2731;50.754;12.990;2022-08-01T07:14:22;3.95;;;2.50;;
5416;SDS011;2731;50.754;12.990;2022-08-01T07:16:47;3.47;;;2.55;;
5416;SDS011;2731;50.754;12.990;2022-08-01T07:19:12;4.47;;;3.28;;
5416;SDS011;2731;50.754;12.990;2022-08-01T07:21:38;3.38;;;2.70;;
5416;SDS011;2731;50.754;12.990;2022-08-01T07:24:03;4.35;;;2.75;;
5416;SDS011;2731;50.754;12.990;2022-08-01T07:26:28;2.55;;;2.35;;
5416;SDS011;2731;50.754;12.990;2022-08-01T07:28:54;2.90;;;2.40;;
5416;SDS011;2731;50.754;12.990;2022-08-01T07:31:19;3.40;;;2.70;;
5416;SDS011;2731;50.754;12.990;2022-08-01T07:33:44;2.70;;;2.37;;
5416;SDS011;2731;50.754;12.990;2022-08-01T07:36:10;2.75;;;2.55;;
5416;SDS011;2731;50.754;12.990;2022-08-01T07:38:35;2.55;;;2.30;;
5416;SDS011;2731;50.754;12.990;2022-08-01T07:41:00;2.80;;;2.45;;
5416;SDS011;2731;50.754;12.990;2022-08-01T07:43:26;3.65;;;2.45;;
5416;SDS011;2731;50.754;12.990;2022-08-01T07:45:51;2.93;;;2.50;;
5416;SDS011;2731;50.754;12.990;2022-08-01T07:48:16;2.70;;;2.50;;
5416;SDS011;2731;50.754;12.990;2022-08-01T07:50:41;3.60;;;3.30;;
5416;SDS011;2731;50.754;12.990;2022-08-01T07:53:07;7.82;;;3.85;;
5416;SDS011;2731;50.754;12.990;2022-08-01T07:55:35;3.90;;;3.60;;
5416;SDS011;2731;50.754;12.990;2022-08-01T07:58:02;4.50;;;3.63;;
5416;SDS011;2731;50.754;12.990;2022-08-01T08:00:27;3.73;;;3.43;;
5416;SDS011;2731;50.754;12.990;2022-08-01T08:02:53;5.30;;;4.03;;
5416;SDS011;2731;50.754;12.990;2022-08-01T08:05:21;5.90;;;4.00;;
5416;SDS011;2731;50.754;12.990;2022-08-01T08:07:47;3.60;;;3.30;;
5416;SDS011;2731;50.754;12.990;2022-08-01T08:10:14;4.67;;;3.30;;
5416;SDS011;2731;50.754;12.990;2022-08-01T08:12:40;4.20;;;3.33;;
5416;SDS011;2731;50.754;12.990;2022-08-01T08:15:05;3.23;;;2.93;;
5416;SDS011;2731;50.754;12.990;2022-08-01T08:17:30;3.47;;;3.10;;
5416;SDS011;2731;50.754;12.990;2022-08-01T08:19:56;3.50;;;3.10;;
5416;SDS011;2731;50.754;12.990;2022-08-01T08:22:22;4.13;;;3.67;;
5416;SDS011;2731;50.754;12.990;2022-08-01T08:24:49;4.00;;;3.60;;
5416;SDS011;2731;50.754;12.990;2022-08-01T08:27:14;4.22;;;3.75;;
5416;SDS011;2731;50.754;12.990;2022-08-01T08:29:40;3.95;;;3.45;;
5416;SDS011;2731;50.754;12.990;2022-08-01T08:32:06;3.80;;;3.50;;
5416;SDS011;2731;50.754;12.990;2022-08-01T08:34:35;3.35;;;3.00;;
5416;SDS011;2731;50.754;12.990;2022-08-01T08:37:00;3.70;;;3.30;;
5416;SDS011;2731;50.754;12.990;2022-08-01T08:39:26;3.22;;;2.92;;
5416;SDS011;2731;50.754;12.990;2022-08-01T08:41:51;2.97;;;2.67;;
5416;SDS011;2731;50.754;12.990;2022-08-01T08:44:17;2.90;;;2.45;;
5416;SDS011;2731;50.754;12.990;2022-08-01T08:46:44;2.97;;;2.67;;
5416;SDS011;2731;50.754;12.990;2022-08-01T08:49:15;2.20;;;2.00;;
5416;SDS011;2731;50.754;12.990;2022-08-01T08:51:41;3.97;;;2.30;;
5416;SDS011;2731;50.754;12.990;2022-08-01T08:54:10;3.45;;;3.03;;
5416;SDS011;2731;50.754;12.990;2022-08-01T08:56:36;3.53;;;2.97;;
5416;SDS011;2731;50.754;12.990;2022-08-01T08:59:02;3.83;;;3.53;;
5416;SDS011;2731;50.754;12.990;2022-08-01T09:01:28;4.28;;;2.67;;
5416;SDS011;2731;50.754;12.990;2022-08-01T09:03:53;2.47;;;2.28;;
5416;SDS011;2731;50.754;12.990;2022-08-01T09:06:19;3.60;;;3.30;;
5416;SDS011;2731;50.754;12.990;2022-08-01T09:08:44;3.20;;;2.90;;
5416;SDS011;2731;50.754;12.990;2022-08-01T09:11:09;3.55;;;3.03;;
5416;SDS011;2731;50.754;12.990;2022-08-01T09:13:35;2.90;;;2.70;;
5416;SDS011;2731;50.754;12.990;2022-08-01T09:16:00;2.65;;;2.45;;
5416;SDS011;2731;50.754;12.990;2022-08-01T09:18:30;2.90;;;2.60;;
5416;SDS011;2731;50.754;12.990;2022-08-01T09:23:34;2.38;;;1.92;;
5416;SDS011;2731;50.754;12.990;2022-08-01T09:26:00;2.00;;;1.80;;
5416;SDS011;2731;50.754;12.990;2022-08-01T09:28:28;1.92;;;1.33;;
5416;SDS011;2731;50.754;12.990;2022-08-01T09:30:55;3.22;;;2.10;;
5416;SDS011;2731;50.754;12.990;2022-08-01T09:33:20;1.73;;;1.60;;
5416;SDS011;2731;50.754;12.990;2022-08-01T09:35:46;1.70;;;1.60;;
5416;SDS011;2731;50.754;12.990;2022-08-01T09:38:22;3.25;;;1.58;;
5416;SDS011;2731;50.754;12.990;2022-08-01T09:43:23;1.70;;;1.35;;
5416;SDS011;2731;50.754;12.990;2022-08-01T09:45:48;2.05;;;1.33;;
5416;SDS011;2731;50.754;12.990;2022-08-01T09:48:14;2.40;;;1.70;;
5416;SDS011;2731;50.754;12.990;2022-08-01T09:50:43;1.35;;;1.25;;
5416;SDS011;2731;50.754;12.990;2022-08-01T09:53:09;2.03;;;1.58;;
5416;SDS011;2731;50.754;12.990;2022-08-01T09:55:34;1.80;;;1.40;;
5416;SDS011;2731;50.754;12.990;2022-08-01T09:58:00;1.13;;;0.90;;
5416;SDS011;2731;50.754;12.990;2022-08-01T10:00:29;6.90;;;2.13;;
5416;SDS011;2731;50.754;12.990;2022-08-01T10:02:54;4.90;;;2.00;;
5416;SDS011;2731;50.754;12.990;2022-08-01T10:05:29;3.80;;;1.37;;
5416;SDS011;2731;50.754;12.990;2022-08-01T10:07:55;2.70;;;1.48;;
5416;SDS011;2731;50.754;12.990;2022-08-01T10:10:21;3.13;;;1.55;;
5416;SDS011;2731;50.754;12.990;2022-08-01T10:12:46;2.30;;;1.47;;
5416;SDS011;2731;50.754;12.990;2022-08-01T10:15:15;3.85;;;1.63;;
5416;SDS011;2731;50.754;12.990;2022-08-01T10:18:04;6.28;;;1.80;;
5416;SDS011;2731;50.754;12.990;2022-08-01T10:20:31;2.88;;;1.60;;
5416;SDS011;2731;50.754;12.990;2022-08-01T10:23:01;3.13;;;1.80;;
5416;SDS011;2731;50.754;12.990;2022-08-01T10:25:27;2.50;;;1.67;;
5416;SDS011;2731;50.754;12.990;2022-08-01T10:27:53;1.83;;;1.65;;
5416;SDS011;2731;50.754;12.990;2022-08-01T10:30:22;1.65;;;1.40;;
5416;SDS011;2731;50.754;12.990;2022-08-01T10:32:47;0.82;;;0.77;;
5416;SDS011;2731;50.754;12.990;2022-08-01T10:35:13;1.05;;;0.75;;
5416;SDS011;2731;50.754;12.990;2022-08-01T10:37:42;1.17;;;0.60;;
5416;SDS011;2731;50.754;12.990;2022-08-01T10:40:08;0.80;;;0.70;;
5416;SDS011;2731;50.754;12.990;2022-08-01T10:42:33;0.43;;;0.40;;
5416;SDS011;2731;50.754;12.990;2022-08-01T10:44:59;1.05;;;0.70;;
5416;SDS011;2731;50.754;12.990;2022-08-01T10:47:25;1.30;;;0.70;;
5416;SDS011;2731;50.754;12.990;2022-08-01T10:50:04;0.68;;;0.68;;
5416;SDS011;2731;50.754;12.990;2022-08-01T10:52:31;0.43;;;0.40;;
5416;SDS011;2731;50.754;12.990;2022-08-01T10:55:08;1.93;;;0.63;;
5416;SDS011;2731;50.754;12.990;2022-08-01T11:00:20;0.70;;;0.60;;
5416;SDS011;2731;50.754;12.990;2022-08-01T11:02:58;0.93;;;0.40;;
5416;SDS011;2731;50.754;12.990;2022-08-01T11:05:32;10.63;;;0.82;;
5416;SDS011;2731;50.754;12.990;2022-08-01T11:07:58;0.85;;;0.63;;
5416;SDS011;2731;50.754;12.990;2022-08-01T11:12:51;0.83;;;0.60;;
5416;SDS011;2731;50.754;12.990;2022-08-01T11:15:17;0.77;;;0.77;;
5416;SDS011;2731;50.754;12.990;2022-08-01T11:17:49;0.93;;;0.60;;
5416;SDS011;2731;50.754;12.990;2022-08-01T11:38:34;0.90;;;0.80;;
5416;SDS011;2731;50.754;12.990;2022-08-01T11:41:10;0.80;;;0.80;;
5416;SDS011;2731;50.754;12.990;2022-08-01T11:43:36;0.70;;;0.68;;
5416;SDS011;2731;50.754;12.990;2022-08-01T11:46:18;0.98;;;0.80;;
5416;SDS011;2731;50.754;12.990;2022-08-01T11:48:47;1.20;;;0.60;;
5416;SDS011;2731;50.754;12.990;2022-08-01T11:51:32;0.70;;;0.68;;
5416;SDS011;2731;50.754;12.990;2022-08-01T11:53:57;0.57;;;0.53;;
5416;SDS011;2731;50.754;12.990;2022-08-01T11:56:23;0.70;;;0.70;;
5416;SDS011;2731;50.754;12.990;2022-08-01T11:58:49;1.87;;;0.87;;
5416;SDS011;2731;50.754;12.990;2022-08-01T12:01:15;1.45;;;0.75;;
5416;SDS011;2731;50.754;12.990;2022-08-01T12:03:40;1.25;;;0.55;;
5416;SDS011;2731;50.754;12.990;2022-08-01T12:06:08;2.45;;;0.60;;
5416;SDS011;2731;50.754;12.990;2022-08-01T12:08:33;1.13;;;0.75;;
5416;SDS011;2731;50.754;12.990;2022-08-01T12:11:01;0.57;;;0.57;;
5416;SDS011;2731;50.754;12.990;2022-08-01T12:13:41;0.77;;;0.60;;
5416;SDS011;2731;50.754;12.990;2022-08-01T12:16:07;0.43;;;0.43;;
5416;SDS011;2731;50.754;12.990;2022-08-01T12:18:37;1.50;;;0.60;;
5416;SDS011;2731;50.754;12.990;2022-08-01T12:21:02;0.70;;;0.70;;
5416;SDS011;2731;50.754;12.990;2022-08-01T12:23:29;0.50;;;0.50;;
5416;SDS011;2731;50.754;12.990;2022-08-01T12:25:54;0.40;;;0.40;;
5416;SDS011;2731;50.754;12.990;2022-08-01T12:28:20;0.77;;;0.63;;
5416;SDS011;2731;50.754;12.990;2022-08-01T12:30:46;2.47;;;0.88;;
5416;SDS011;2731;50.754;12.990;2022-08-01T12:33:16;0.60;;;0.60;;
5416;SDS011;2731;50.754;12.990;2022-08-01T12:35:41;0.70;;;0.70;;
5416;SDS011;2731;50.754;12.990;2022-08-01T12:38:13;0.88;;;0.82;;
5416;SDS011;2731;50.754;12.990;2022-08-01T12:40:43;2.92;;;1.00;;
5416;SDS011;2731;50.754;12.990;2022-08-01T12:43:08;2.60;;;1.00;;
5416;SDS011;2731;50.754;12.990;2022-08-01T12:45:36;2.88;;;0.90;;
5416;SDS011;2731;50.754;12.990;2022-08-01T12:48:02;1.08;;;0.70;;
5416;SDS011;2731;50.754;12.990;2022-08-01T12:50:32;0.82;;;0.80;;
5416;SDS011;2731;50.754;12.990;2022-08-01T12:52:57;0.82;;;0.60;;
5416;SDS011;2731;50.754;12.990;2022-08-01T12:55:24;0.80;;;0.77;;
5416;SDS011;2731;50.754;12.990;2022-08-01T12:57:59;0.95;;;0.70;;
5416;SDS011;2731;50.754;12.990;2022-08-01T13:00:27;0.68;;;0.68;;
5416;SDS011;2731;50.754;12.990;2022-08-01T13:03:03;1.17;;;0.60;;
5416;SDS011;2731;50.754;12.990;2022-08-01T13:05:49;2.38;;;0.80;;
5416;SDS011;2731;50.754;12.990;2022-08-01T13:10:43;0.70;;;0.70;;
5416;SDS011;2731;50.754;12.990;2022-08-01T13:13:12;0.80;;;0.70;;
5416;SDS011;2731;50.754;12.990;2022-08-01T13:15:40;0.85;;;0.63;;
5416;SDS011;2731;50.754;12.990;2022-08-01T13:18:24;0.40;;;0.40;;
5416;SDS011;2731;50.754;12.990;2022-08-01T13:20:50;2.80;;;0.57;;
5416;SDS011;2731;50.754;12.990;2022-08-01T13:23:31;1.13;;;0.60;;
5416;SDS011;2731;50.754;12.990;2022-08-01T13:25:56;1.10;;;0.70;;
5416;SDS011;2731;50.754;12.990;2022-08-01T13:28:23;0.85;;;0.35;;
5416;SDS011;2731;50.754;12.990;2022-08-01T13:30:55;2.45;;;0.60;;
5416;SDS011;2731;50.754;12.990;2022-08-01T13:33:21;1.00;;;0.40;;
5416;SDS011;2731;50.754;12.990;2022-08-01T13:35:48;0.98;;;0.75;;
5416;SDS011;2731;50.754;12.990;2022-08-01T13:38:14;0.88;;;0.55;;
5416;SDS011;2731;50.754;12.990;2022-08-01T13:40:39;1.17;;;0.40;;
5416;SDS011;2731;50.754;12.990;2022-08-01T13:43:04;0.77;;;0.50;;
5416;SDS011;2731;50.754;12.990;2022-08-01T13:45:29;1.17;;;0.50;;
5416;SDS011;2731;50.754;12.990;2022-08-01T13:47:55;1.15;;;0.60;;
5416;SDS011;2731;50.754;12.990;2022-08-01T13:50:20;0.87;;;0.43;;
5416;SDS011;2731;50.754;12.990;2022-08-01T13:52:45;0.50;;;0.50;;
5416;SDS011;2731;50.754;12.990;2022-08-01T13:55:10;0.60;;;0.50;;
5416;SDS011;2731;50.754;12.990;2022-08-01T13:57:41;0.73;;;0.55;;
5416;SDS011;2731;50.754;12.990;2022-08-01T14:00:07;0.68;;;0.52;;
5416;SDS011;2731;50.754;12.990;2022-08-01T14:02:35;1.40;;;0.40;;
5416;SDS011;2731;50.754;12.990;2022-08-01T14:05:00;2.75;;;0.40;;
5416;SDS011;2731;50.754;12.990;2022-08-01T14:07:26;0.82;;;0.52;;
5416;SDS011;2731;50.754;12.990;2022-08-01T14:09:51;1.65;;;0.40;;
5416;SDS011;2731;50.754;12.990;2022-08-01T14:12:16;0.90;;;0.50;;
5416;SDS011;2731;50.754;12.990;2022-08-01T14:14:42;1.80;;;0.53;;
5416;SDS011;2731;50.754;12.990;2022-08-01T14:17:09;0.38;;;0.38;;
5416;SDS011;2731;50.754;12.990;2022-08-01T14:19:34;0.40;;;0.40;;
5416;SDS011;2731;50.754;12.990;2022-08-01T14:21:59;1.80;;;0.40;;
5416;SDS011;2731;50.754;12.990;2022-08-01T14:24:25;0.30;;;0.30;;
5416;SDS011;2731;50.754;12.990;2022-08-01T14:26:51;0.40;;;0.32;;
5416;SDS011;2731;50.754;12.990;2022-08-01T14:29:16;2.47;;;0.30;;
5416;SDS011;2731;50.754;12.990;2022-08-01T14:31:41;1.70;;;0.60;;
5416;SDS011;2731;50.754;12.990;2022-08-01T14:34:06;1.27;;;0.30;;
5416;SDS011;2731;50.754;12.990;2022-08-01T14:36:32;0.40;;;0.40;;
5416;SDS011;2731;50.754;12.990;2022-08-01T14:39:00;0.40;;;0.40;;
5416;SDS011;2731;50.754;12.990;2022-08-01T14:41:25;1.40;;;0.55;;
5416;SDS011;2731;50.754;12.990;2022-08-01T14:43:50;0.63;;;0.50;;
5416;SDS011;2731;50.754;12.990;2022-08-01T14:46:15;0.50;;;0.50;;
5416;SDS011;2731;50.754;12.990;2022-08-01T14:48:41;0.68;;;0.40;;
5416;SDS011;2731;50.754;12.990;2022-08-01T14:51:06;1.73;;;0.50;;
5416;SDS011;2731;50.754;12.990;2022-08-01T14:53:32;0.80;;;0.38;;
5416;SDS011;2731;50.754;12.990;2022-08-01T14:55:57;0.60;;;0.50;;
5416;SDS011;2731;50.754;12.990;2022-08-01T14:58:25;2.57;;;0.50;;
5416;SDS011;2731;50.754;12.990;2022-08-01T15:00:50;0.63;;;0.40;;
5416;SDS011;2731;50.754;12.990;2022-08-01T15:03:19;1.38;;;0.55;;
5416;SDS011;2731;50.754;12.990;2022-08-01T15:05:44;1.33;;;0.40;;
5416;SDS011;2731;50.754;12.990;2022-08-01T15:08:09;0.93;;;0.60;;
5416;SDS011;2731;50.754;12.990;2022-08-01T15:10:34;0.40;;;0.40;;
5416;SDS011;2731;50.754;12.990;2022-08-01T15:13:00;2.10;;;0.47;;
5416;SDS011;2731;50.754;12.990;2022-08-01T15:15:26;0.30;;;0.30;;
5416;SDS011;2731;50.754;12.990;2022-08-01T15:17:52;0.63;;;0.40;;
5416;SDS011;2731;50.754;12.990;2022-08-01T15:20:17;1.15;;;0.60;;
5416;SDS011;2731;50.754;12.990;2022-08-01T15:22:43;0.25;;;0.25;;
5416;SDS011;2731;50.754;12.990;2022-08-01T15:25:08;0.87;;;0.63;;
5416;SDS011;2731;50.754;12.990;2022-08-01T15:27:33;1.13;;;0.80;;
5416;SDS011;2731;50.754;12.990;2022-08-01T15:29:58;0.87;;;0.80;;
5416;SDS011;2731;50.754;12.990;2022-08-01T15:32:23;0.87;;;0.83;;
5416;SDS011;2731;50.754;12.990;2022-08-01T15:34:49;1.53;;;1.00;;
5416;SDS011;2731;50.754;12.990;2022-08-01T15:37:14;2.03;;;0.90;;
5416;SDS011;2731;50.754;12.990;2022-08-01T15:39:39;1.08;;;0.90;;
5416;SDS011;2731;50.754;12.990;2022-08-01T15:42:06;2.58;;;0.80;;